createdAt,value
2023-01-07T00:01:32.523Z,96.18
2023-01-07T00:04:01.194Z,96.52
2023-01-07T00:06:30.814Z,96.41
2023-01-07T00:08:58.842Z,96.22
2023-01-07T00:11:29.083Z,96.39
2023-01-07T00:13:58.081Z,96.44
2023-01-07T00:16:31.404Z,96.85
2023-01-07T00:19:01.467Z,96.72
2023-01-07T00:21:31.442Z,96.96
2023-01-07T00:24:00.639Z,96.08
2023-01-07T00:26:31.237Z,96.86
2023-01-07T00:28:59.957Z,98.15
2023-01-07T00:31:28.018Z,99.27
2023-01-07T00:34:08.730Z,98.06
2023-01-07T00:36:43.156Z,98.05
2023-01-07T00:39:14.401Z,97.04
2023-01-07T00:42:02.206Z,97.68
2023-01-07T00:44:29.996Z,97.77
2023-01-07T00:46:58.208Z,97.54
2023-01-07T00:49:25.809Z,98.14
2023-01-07T00:51:56.475Z,98.10
2023-01-07T00:54:24.753Z,98.41
2023-01-07T00:56:52.226Z,97.46
2023-01-07T00:59:19.725Z,97.31
2023-01-07T01:01:47.341Z,97.04
2023-01-07T01:04:14.922Z,96.52
2023-01-07T01:06:42.428Z,96.85
2023-01-07T01:09:11.246Z,97.16
2023-01-07T01:11:38.685Z,97.54
2023-01-07T01:14:06.160Z,97.34
2023-01-07T01:16:33.662Z,96.98
2023-01-07T01:19:01.157Z,97.17
2023-01-07T01:21:28.614Z,97.58
2023-01-07T01:23:56.077Z,97.25
2023-01-07T01:26:25.199Z,96.84
2023-01-07T01:28:52.665Z,97.24
2023-01-07T01:31:20.148Z,96.94
2023-01-07T01:33:47.638Z,96.79
2023-01-07T01:36:15.109Z,97.20
2023-01-07T01:38:42.957Z,99.74
2023-01-07T01:41:10.482Z,100.00
2023-01-07T01:43:44.321Z,100.00
2023-01-07T01:46:15.349Z,100.00
2023-01-07T01:48:48.457Z,100.00
2023-01-07T01:51:20.077Z,100.00
2023-01-07T01:53:47.860Z,100.00
2023-01-07T01:56:19.109Z,100.00
2023-01-07T01:58:52.598Z,98.42
2023-01-07T02:01:20.202Z,98.55
2023-01-07T02:03:49.334Z,97.99
2023-01-07T02:06:22.611Z,97.40
2023-01-07T02:08:50.780Z,100.00
2023-01-07T02:11:28.348Z,98.76
2023-01-07T02:14:10.946Z,99.44
2023-01-07T02:16:45.816Z,98.15
2023-01-07T02:19:45.580Z,97.87
2023-01-07T02:22:30.815Z,99.41
2023-01-07T02:25:21.435Z,98.73
2023-01-07T02:28:09.554Z,99.46
2023-01-07T02:30:51.523Z,100.00
2023-01-07T02:33:28.675Z,100.00
2023-01-07T02:36:21.284Z,98.58
2023-01-07T02:39:02.615Z,97.58
2023-01-07T02:41:45.947Z,100.00
2023-01-07T02:44:21.304Z,98.80
2023-01-07T02:46:55.330Z,98.79
2023-01-07T02:49:24.139Z,99.33
2023-01-07T02:51:51.860Z,98.69
2023-01-07T02:54:23.008Z,98.14
2023-01-07T02:57:15.596Z,97.60
2023-01-07T03:00:04.436Z,97.73
2023-01-07T03:03:02.739Z,97.29
2023-01-07T03:05:45.491Z,97.32
2023-01-07T03:08:29.509Z,98.80
2023-01-07T03:11:00.484Z,97.98
2023-01-07T03:13:35.912Z,98.85
2023-01-07T03:16:07.194Z,98.08
2023-01-07T03:18:39.704Z,98.13
2023-01-07T03:21:13.233Z,100.00
2023-01-07T03:23:48.673Z,98.62
2023-01-07T03:26:21.627Z,99.67
2023-01-07T03:28:52.162Z,100.00
2023-01-07T03:31:22.263Z,98.40
2023-01-07T03:33:53.913Z,98.33
2023-01-07T03:36:28.561Z,98.29
2023-01-07T03:38:57.523Z,99.85
2023-01-07T03:41:42.838Z,100.00
2023-01-07T03:44:10.306Z,100.00
2023-01-07T03:46:38.541Z,99.55
2023-01-07T03:49:06.047Z,98.68
2023-01-07T03:51:34.842Z,99.60
2023-01-07T03:54:02.274Z,98.72
2023-01-07T03:56:29.754Z,100.00
2023-01-07T03:58:57.256Z,100.00
2023-01-07T04:01:24.838Z,100.00
2023-01-07T04:03:52.354Z,99.58
2023-01-07T04:06:19.896Z,98.99
2023-01-07T04:08:48.689Z,99.02
2023-01-07T04:11:16.225Z,98.78
2023-01-07T04:13:43.717Z,100.00
2023-01-07T04:16:11.195Z,100.00
2023-01-07T04:18:38.734Z,100.00
2023-01-07T04:21:06.358Z,99.45
2023-01-07T04:23:34.083Z,99.69
2023-01-07T04:26:02.990Z,98.89
2023-01-07T04:28:30.509Z,98.66
2023-01-07T04:30:59.378Z,98.88
2023-01-07T04:33:27.087Z,100.00
2023-01-07T04:35:54.605Z,100.00
2023-01-07T04:38:22.040Z,100.00
2023-01-07T04:40:50.103Z,99.43
2023-01-07T04:43:18.975Z,98.61
2023-01-07T04:45:46.625Z,98.38
2023-01-07T04:48:15.116Z,98.47
2023-01-07T04:50:42.561Z,98.16
2023-01-07T04:53:10.030Z,100.00
2023-01-07T04:55:37.534Z,99.08
2023-01-07T04:58:04.982Z,100.00
2023-01-07T05:00:33.812Z,99.10
2023-01-07T05:03:01.566Z,100.00
2023-01-07T05:05:29.115Z,100.00
2023-01-07T05:07:56.559Z,100.00
2023-01-07T05:10:24.017Z,99.11
2023-01-07T05:12:51.559Z,99.04
2023-01-07T05:15:19.210Z,100.00
2023-01-07T05:17:50.893Z,100.00
2023-01-07T05:20:18.495Z,100.00
2023-01-07T05:22:46.344Z,100.00
2023-01-07T05:25:13.830Z,100.00
2023-01-07T05:27:41.263Z,99.14
2023-01-07T05:30:09.584Z,99.27
2023-01-07T05:32:37.074Z,99.82
2023-01-07T05:35:06.601Z,100.00
2023-01-07T05:37:34.228Z,100.00
2023-01-07T05:40:01.738Z,100.00
2023-01-07T05:42:29.215Z,100.00
2023-01-07T05:44:56.646Z,100.00
2023-01-07T05:47:24.362Z,100.00
2023-01-07T05:49:51.793Z,100.00
2023-01-07T05:52:20.631Z,100.00
2023-01-07T05:54:48.092Z,100.00
2023-01-07T05:57:15.538Z,100.00
2023-01-07T05:59:43.067Z,100.00
2023-01-07T06:02:10.520Z,100.00
2023-01-07T06:04:37.991Z,100.00
2023-01-07T06:07:05.447Z,100.00
2023-01-07T06:09:34.253Z,99.86
2023-01-07T06:12:01.695Z,100.00
2023-01-07T06:14:29.161Z,100.00
2023-01-07T06:16:56.599Z,100.00
2023-01-07T06:19:24.039Z,100.00
2023-01-07T06:21:51.512Z,100.00
2023-01-07T06:24:18.963Z,100.00
2023-01-07T06:26:47.801Z,100.00
2023-01-07T06:29:15.624Z,100.00
2023-01-07T06:31:43.049Z,100.00
2023-01-07T06:34:10.502Z,100.00
2023-01-07T06:36:37.976Z,100.00
2023-01-07T06:39:05.749Z,100.00
2023-01-07T06:41:33.243Z,100.00
2023-01-07T06:44:02.035Z,100.00
2023-01-07T06:46:29.766Z,100.00
2023-01-07T06:48:57.274Z,100.00
2023-01-07T06:51:24.792Z,100.00
2023-01-07T06:53:52.261Z,100.00
2023-01-07T06:56:19.718Z,100.00
2023-01-07T06:58:47.227Z,100.00
2023-01-07T07:01:16.169Z,100.00
2023-01-07T07:03:43.716Z,100.00
2023-01-07T07:06:11.890Z,100.00
2023-01-07T07:08:39.569Z,100.00
2023-01-07T07:11:07.088Z,100.00
2023-01-07T07:13:34.571Z,100.00
2023-01-07T07:16:02.072Z,100.00
2023-01-07T07:18:31.250Z,100.00
2023-01-07T07:20:59.450Z,100.00
2023-01-07T07:23:26.979Z,100.00
2023-01-07T07:25:54.437Z,100.00
2023-01-07T07:28:21.917Z,100.00
2023-01-07T07:30:49.738Z,100.00
2023-01-07T07:33:19.287Z,100.00
2023-01-07T07:35:48.549Z,100.00
2023-01-07T07:38:17.567Z,100.00
2023-01-07T07:40:45.074Z,100.00
2023-01-07T07:43:13.235Z,100.00
2023-01-07T07:45:41.384Z,100.00
2023-01-07T07:48:09.616Z,100.00
2023-01-07T07:50:37.531Z,100.00
2023-01-07T07:53:09.822Z,100.00
2023-01-07T07:55:37.872Z,100.00
2023-01-07T07:58:05.471Z,100.00
2023-01-07T08:00:33.510Z,100.00
2023-01-07T08:03:01.545Z,100.00
2023-01-07T08:05:29.786Z,100.00
2023-01-07T08:07:58.072Z,100.00
2023-01-07T08:10:28.016Z,100.00
2023-01-07T08:12:55.448Z,100.00
2023-01-07T08:15:22.930Z,100.00
2023-01-07T08:17:57.895Z,100.00
2023-01-07T08:20:25.417Z,100.00
2023-01-07T08:22:52.852Z,100.00
2023-01-07T08:25:20.365Z,100.00
2023-01-07T08:27:49.256Z,100.00
2023-01-07T08:30:16.912Z,100.00
2023-01-07T08:32:44.427Z,100.00
2023-01-07T08:35:11.900Z,100.00
2023-01-07T08:37:40.423Z,100.00
2023-01-07T08:40:08.764Z,100.00
2023-01-07T08:42:36.483Z,100.00
2023-01-07T08:45:09.753Z,100.00
2023-01-07T08:47:37.197Z,100.00
2023-01-07T08:50:05.384Z,100.00
2023-01-07T08:52:32.918Z,100.00
2023-01-07T08:55:00.361Z,100.00
2023-01-07T08:57:27.819Z,100.00
2023-01-07T08:59:55.363Z,100.00
2023-01-07T09:02:24.172Z,100.00
2023-01-07T09:04:51.743Z,100.00
2023-01-07T09:07:19.231Z,100.00
2023-01-07T09:09:46.725Z,100.00
2023-01-07T09:12:14.185Z,100.00
2023-01-07T09:14:41.619Z,100.00
2023-01-07T09:17:09.074Z,100.00
2023-01-07T09:19:37.839Z,100.00
2023-01-07T09:22:05.965Z,100.00
2023-01-07T09:24:33.408Z,100.00
2023-01-07T09:27:00.873Z,100.00
2023-01-07T09:29:28.334Z,100.00
2023-01-07T09:31:57.500Z,100.00
2023-01-07T09:34:25.122Z,100.00
2023-01-07T09:36:55.469Z,100.00
2023-01-07T09:39:22.894Z,100.00
2023-01-07T09:41:59.531Z,100.00
2023-01-07T09:44:40.473Z,100.00
2023-01-07T09:47:09.701Z,100.00
2023-01-07T09:49:37.432Z,100.00
2023-01-07T09:52:13.547Z,100.00
2023-01-07T09:54:42.042Z,100.00
2023-01-07T09:57:11.486Z,100.00
2023-01-07T09:59:38.963Z,100.00
2023-01-07T10:02:23.890Z,100.00
2023-01-07T10:04:59.534Z,99.40
2023-01-07T10:07:35.370Z,98.98
2023-01-07T10:10:12.699Z,99.55
2023-01-07T10:12:48.790Z,99.33
2023-01-07T10:15:32.946Z,98.28
2023-01-07T10:18:18.780Z,98.69
2023-01-07T10:20:54.055Z,98.78
2023-01-07T10:23:28.447Z,98.63
2023-01-07T10:25:58.231Z,97.89
2023-01-07T10:28:33.245Z,98.15
2023-01-07T10:31:02.182Z,97.92
2023-01-07T10:33:32.807Z,96.79
2023-01-07T10:36:09.330Z,97.80
2023-01-07T10:38:43.133Z,97.08
2023-01-07T10:41:17.407Z,96.10
2023-01-07T10:44:04.096Z,96.13
2023-01-07T10:46:49.425Z,95.05
2023-01-07T10:49:39.148Z,94.98
2023-01-07T10:52:18.137Z,95.54
2023-01-07T10:55:02.318Z,95.89
2023-01-07T10:57:32.507Z,95.40
2023-01-07T11:00:03.555Z,94.88
2023-01-07T11:02:31.232Z,94.56
2023-01-07T11:05:03.160Z,95.24
2023-01-07T11:07:41.314Z,93.41
2023-01-07T11:10:16.064Z,92.09
2023-01-07T11:12:47.622Z,93.78
2023-01-07T11:15:20.098Z,93.49
2023-01-07T11:17:52.049Z,93.30
2023-01-07T11:20:44.756Z,93.50
2023-01-07T11:23:32.508Z,93.52
2023-01-07T11:26:11.527Z,92.83
2023-01-07T11:28:44.462Z,92.32
2023-01-07T11:31:12.005Z,91.94
2023-01-07T11:34:02.776Z,91.27
2023-01-07T11:36:40.797Z,91.61
2023-01-07T11:39:11.343Z,91.78
2023-01-07T11:41:52.917Z,91.92
2023-01-07T11:44:20.473Z,91.29
2023-01-07T11:46:48.215Z,91.40
2023-01-07T11:49:24.332Z,91.42
2023-01-07T11:51:52.157Z,91.38
2023-01-07T11:54:22.654Z,90.73
2023-01-07T11:56:54.029Z,89.69
2023-01-07T11:59:30.499Z,89.44
2023-01-07T12:02:00.335Z,88.90
2023-01-07T12:04:30.989Z,89.15
2023-01-07T12:07:01.064Z,88.87
2023-01-07T12:09:38.149Z,87.77
2023-01-07T12:12:27.953Z,88.53
2023-01-07T12:14:56.668Z,88.37
2023-01-07T12:17:26.033Z,88.79
2023-01-07T12:20:06.329Z,88.25
2023-01-07T12:22:44.777Z,88.62
2023-01-07T12:25:29.474Z,88.66
2023-01-07T12:28:10.864Z,87.69
2023-01-07T12:30:58.923Z,87.96
2023-01-07T12:33:42.256Z,89.02
2023-01-07T12:36:16.110Z,89.91
2023-01-07T12:38:47.349Z,88.41
2023-01-07T12:41:23.320Z,87.94
2023-01-07T12:44:01.269Z,88.14
2023-01-07T12:46:36.297Z,87.81
2023-01-07T12:49:11.926Z,87.42
2023-01-07T12:51:44.563Z,87.86
2023-01-07T12:54:18.438Z,87.92
2023-01-07T12:56:53.030Z,86.91
2023-01-07T12:59:47.093Z,87.30
2023-01-07T13:02:27.345Z,88.10
2023-01-07T13:05:04.540Z,88.10
2023-01-07T13:07:39.825Z,88.29
2023-01-07T13:10:16.470Z,86.94
2023-01-07T13:12:46.580Z,86.87
2023-01-07T13:15:23.140Z,87.10
2023-01-07T13:17:53.685Z,86.63
2023-01-07T13:20:44.344Z,86.72
2023-01-07T13:23:19.642Z,87.11
2023-01-07T13:26:02.845Z,86.89
2023-01-07T13:28:53.726Z,87.17
2023-01-07T13:31:36.727Z,87.33
2023-01-07T13:34:16.473Z,86.37
2023-01-07T13:36:52.961Z,86.91
2023-01-07T13:39:40.998Z,86.47
2023-01-07T13:42:25.278Z,84.68
2023-01-07T13:45:06.177Z,86.12
2023-01-07T13:47:44.231Z,85.98
2023-01-07T13:50:21.578Z,86.32
2023-01-07T13:52:58.653Z,85.15
2023-01-07T13:55:34.251Z,86.40
2023-01-07T13:58:03.708Z,85.83
2023-01-07T14:01:02.707Z,85.93
2023-01-07T14:03:41.604Z,86.90
2023-01-07T14:06:43.331Z,86.28
2023-01-07T14:09:32.864Z,87.04
2023-01-07T14:12:39.705Z,87.06
2023-01-07T14:15:43.388Z,87.30
2023-01-07T14:18:50.614Z,87.00
2023-01-07T14:21:52.623Z,87.57
2023-01-07T14:24:36.307Z,85.77
2023-01-07T14:27:28.880Z,87.36
2023-01-07T14:30:02.858Z,87.11
2023-01-07T14:32:38.992Z,85.29
2023-01-07T14:35:20.609Z,86.95
2023-01-07T14:37:49.528Z,86.87
2023-01-07T14:40:59.946Z,87.67
2023-01-07T14:43:47.457Z,87.14
2023-01-07T14:46:44.525Z,86.23
2023-01-07T14:49:37.913Z,86.07
2023-01-07T14:52:17.480Z,87.77
2023-01-07T14:55:22.278Z,87.96
2023-01-07T14:58:04.973Z,87.97
2023-01-07T15:00:48.643Z,87.54
2023-01-07T15:03:30.844Z,87.80
2023-01-07T15:06:15.638Z,89.16
2023-01-07T15:09:06.901Z,90.24
2023-01-07T15:11:54.996Z,89.59
2023-01-07T15:14:45.668Z,91.78
2023-01-07T15:17:15.498Z,90.49
2023-01-07T15:19:44.275Z,90.55
2023-01-07T15:22:19.232Z,91.06
2023-01-07T15:24:54.377Z,91.06
2023-01-07T15:27:32.240Z,90.62
2023-01-07T15:30:07.675Z,91.62
2023-01-07T15:32:45.898Z,91.84
2023-01-07T15:35:21.724Z,91.41
2023-01-07T15:37:51.919Z,91.41
2023-01-07T15:40:21.437Z,91.24
2023-01-07T15:42:53.356Z,90.87
2023-01-07T15:45:23.280Z,91.97
2023-01-07T15:47:51.338Z,89.03
2023-01-07T15:50:24.651Z,90.78
2023-01-07T15:53:00.651Z,91.88
2023-01-07T15:55:31.197Z,91.09
2023-01-07T15:58:05.060Z,89.06
2023-01-07T16:00:34.642Z,91.38
2023-01-07T16:03:03.149Z,91.89
2023-01-07T16:05:31.495Z,90.82
2023-01-07T16:08:00.703Z,90.44
2023-01-07T16:10:30.921Z,91.54
2023-01-07T16:13:03.121Z,89.56
2023-01-07T16:15:32.150Z,90.03
2023-01-07T16:18:01.315Z,90.94
2023-01-07T16:20:30.837Z,88.60
2023-01-07T16:23:19.602Z,90.49
2023-01-07T16:25:50.057Z,91.18
2023-01-07T16:28:32.527Z,90.92
2023-01-07T16:31:01.465Z,91.07
2023-01-07T16:33:33.499Z,88.89
2023-01-07T16:36:03.251Z,89.80
2023-01-07T16:38:31.431Z,91.32
2023-01-07T16:40:58.887Z,90.44
2023-01-07T16:43:34.441Z,89.42
2023-01-07T16:46:19.711Z,90.93
2023-01-07T16:49:11.720Z,90.73
2023-01-07T16:51:42.778Z,90.63
2023-01-07T16:54:23.174Z,89.00
2023-01-07T16:56:52.481Z,91.05
2023-01-07T16:59:23.441Z,90.34
2023-01-07T17:01:51.457Z,89.48
2023-01-07T17:04:24.110Z,89.50
2023-01-07T17:06:52.062Z,89.53
2023-01-07T17:09:23.353Z,91.31
2023-01-07T17:11:54.433Z,89.30
2023-01-07T17:14:49.269Z,89.65
2023-01-07T17:17:24.960Z,90.57
2023-01-07T17:19:55.504Z,88.91
2023-01-07T17:22:32.012Z,88.46
2023-01-07T17:25:09.346Z,89.61
2023-01-07T17:27:42.947Z,90.24
2023-01-07T17:30:16.950Z,89.31
2023-01-07T17:32:45.329Z,91.48
2023-01-07T17:35:20.760Z,88.94
2023-01-07T17:37:48.836Z,89.02
2023-01-07T17:40:17.227Z,90.09
2023-01-07T17:43:04.567Z,89.62
2023-01-07T17:45:34.601Z,88.67
2023-01-07T17:48:02.453Z,89.10
2023-01-07T17:50:39.029Z,89.45
2023-01-07T17:53:06.813Z,90.55
2023-01-07T17:55:37.880Z,88.90
2023-01-07T17:58:05.750Z,93.15
2023-01-07T18:00:36.552Z,91.25
2023-01-07T18:03:04.459Z,90.33
2023-01-07T18:05:32.007Z,88.92
2023-01-07T18:07:59.594Z,89.74
2023-01-07T18:10:50.141Z,91.96
2023-01-07T18:13:16.619Z,95.17
2023-01-07T18:15:45.401Z,91.74
2023-01-07T18:18:12.711Z,92.61
2023-01-07T18:20:40.260Z,95.86
2023-01-07T18:23:07.866Z,96.05
2023-01-07T18:25:35.357Z,92.77
2023-01-07T18:28:04.183Z,96.33
2023-01-07T18:30:32.922Z,99.27
2023-01-07T18:33:03.581Z,96.58
2023-01-07T18:35:31.288Z,96.30
2023-01-07T18:37:58.914Z,95.45
2023-01-07T18:40:28.052Z,95.97
2023-01-07T18:42:59.885Z,98.45
2023-01-07T18:45:27.556Z,99.51
2023-01-07T18:47:55.199Z,98.85
2023-01-07T18:50:24.024Z,96.41
2023-01-07T18:52:51.499Z,96.84
2023-01-07T18:55:19.412Z,96.78
2023-01-07T18:57:47.507Z,99.06
2023-01-07T19:00:15.867Z,97.20
2023-01-07T19:02:43.349Z,97.02
2023-01-07T19:05:11.069Z,98.88
2023-01-07T19:07:44.099Z,100.00
2023-01-07T19:10:11.840Z,100.00
2023-01-07T19:12:39.336Z,100.00
2023-01-07T19:15:07.941Z,100.00
2023-01-07T19:17:35.392Z,97.75
2023-01-07T19:20:02.899Z,96.70
2023-01-07T19:22:33.271Z,94.92
2023-01-07T19:25:02.116Z,93.85
2023-01-07T19:27:34.223Z,92.55
2023-01-07T19:30:01.704Z,91.84
2023-01-07T19:32:30.176Z,92.02
2023-01-07T19:34:57.613Z,92.01
2023-01-07T19:37:25.148Z,90.79
2023-01-07T19:39:52.652Z,93.77
2023-01-07T19:42:21.722Z,95.67
2023-01-07T19:44:49.311Z,94.73
2023-01-07T19:47:17.464Z,99.51
2023-01-07T19:49:45.369Z,100.00
2023-01-07T19:52:13.445Z,100.00
2023-01-07T19:54:41.649Z,100.00
2023-01-07T19:57:09.188Z,100.00
2023-01-07T19:59:38.044Z,100.00
2023-01-07T20:02:06.048Z,96.84
2023-01-07T20:04:33.673Z,97.11
2023-01-07T20:07:03.767Z,99.36
2023-01-07T20:09:31.252Z,97.95
2023-01-07T20:11:58.728Z,98.47
2023-01-07T20:14:26.193Z,98.25
2023-01-07T20:16:55.054Z,99.87
2023-01-07T20:19:23.264Z,97.27
2023-01-07T20:21:50.840Z,99.06
2023-01-07T20:24:18.423Z,98.56
2023-01-07T20:26:46.024Z,93.06
2023-01-07T20:29:13.484Z,96.01
2023-01-07T20:31:44.667Z,92.33
2023-01-07T20:34:13.623Z,91.00
2023-01-07T20:36:41.009Z,98.56
2023-01-07T20:39:08.464Z,97.00
2023-01-07T20:41:38.545Z,92.61
2023-01-07T20:44:08.479Z,100.00
2023-01-07T20:46:36.181Z,95.11
2023-01-07T20:49:03.756Z,95.05
2023-01-07T20:51:33.821Z,93.43
2023-01-07T20:54:01.353Z,95.75
2023-01-07T20:56:31.918Z,95.49
2023-01-07T20:59:00.736Z,93.48
2023-01-07T21:01:29.379Z,97.32
2023-01-07T21:03:57.019Z,97.71
2023-01-07T21:06:24.609Z,100.00
2023-01-07T21:08:53.414Z,100.00
2023-01-07T21:11:23.566Z,96.54
2023-01-07T21:13:52.706Z,97.15
2023-01-07T21:16:20.501Z,97.15
2023-01-07T21:18:48.133Z,99.73
2023-01-07T21:21:20.827Z,100.00
2023-01-07T21:23:49.345Z,99.05
2023-01-07T21:26:18.908Z,99.21
2023-01-07T21:28:46.834Z,100.00
2023-01-07T21:31:19.666Z,100.00
2023-01-07T21:33:47.480Z,100.00
2023-01-07T21:36:17.553Z,97.71
2023-01-07T21:38:46.056Z,99.45
2023-01-07T21:41:15.729Z,97.27
2023-01-07T21:43:44.876Z,94.64
2023-01-07T21:46:17.263Z,94.43
2023-01-07T21:48:47.387Z,95.42
2023-01-07T21:51:18.137Z,99.24
2023-01-07T21:53:45.693Z,100.00
2023-01-07T21:56:15.281Z,99.37
2023-01-07T21:58:45.361Z,98.14
2023-01-07T22:01:13.586Z,100.00
2023-01-07T22:03:43.922Z,100.00
2023-01-07T22:06:18.386Z,100.00
2023-01-07T22:08:45.921Z,98.94
2023-01-07T22:11:14.400Z,98.15
2023-01-07T22:13:41.903Z,98.14
2023-01-07T22:16:11.422Z,99.24
2023-01-07T22:18:38.954Z,100.00
2023-01-07T22:21:06.808Z,100.00
2023-01-07T22:23:36.694Z,100.00
2023-01-07T22:26:05.415Z,100.00
2023-01-07T22:28:34.885Z,100.00
2023-01-07T22:31:06.332Z,100.00
2023-01-07T22:33:35.213Z,100.00
2023-01-07T22:36:03.250Z,100.00
2023-01-07T22:38:32.998Z,100.00
2023-01-07T22:41:02.850Z,100.00
2023-01-07T22:43:31.268Z,95.68
2023-01-07T22:46:03.631Z,94.92
2023-01-07T22:48:34.740Z,93.04
2023-01-07T22:51:07.414Z,93.16
2023-01-07T22:53:35.181Z,91.24
2023-01-07T22:56:03.930Z,90.83
2023-01-07T22:58:31.488Z,90.61
2023-01-07T23:01:10.875Z,90.33
2023-01-07T23:03:38.596Z,89.53
2023-01-07T23:06:08.643Z,90.55
2023-01-07T23:08:37.629Z,90.35
2023-01-07T23:11:06.086Z,90.96
2023-01-07T23:13:33.827Z,90.94
2023-01-07T23:16:02.341Z,91.00
2023-01-07T23:18:30.097Z,91.16
2023-01-07T23:20:58.151Z,89.92
2023-01-07T23:23:26.950Z,90.50
2023-01-07T23:25:54.521Z,88.39
2023-01-07T23:28:21.997Z,89.30
2023-01-07T23:30:49.462Z,87.28
2023-01-07T23:33:16.923Z,89.48
2023-01-07T23:35:46.317Z,88.82
2023-01-07T23:38:13.758Z,90.25
2023-01-07T23:40:43.526Z,90.55
2023-01-07T23:43:10.961Z,90.20
2023-01-07T23:45:38.521Z,88.87
2023-01-07T23:48:06.218Z,88.23
2023-01-07T23:50:36.773Z,88.40
2023-01-07T23:53:04.308Z,86.45
2023-01-07T23:55:31.768Z,87.43
2023-01-07T23:58:00.567Z,88.80
